sensor_id;sensor_type;location;lat;lon;timestamp;P1;durP1;ratioP1;P2;durP2;ratioP2
3427;SDS011;1727;42.624;23.406;2023-05-16T00:02:18;22.37;;;17.87;;
3427;SDS011;1727;42.624;23.406;2023-05-16T00:14:51;22.57;;;16.60;;
3427;SDS011;1727;42.624;23.406;2023-05-16T00:17:19;19.50;;;15.63;;
3427;SDS011;1727;42.624;23.406;2023-05-16T00:19:46;19.70;;;16.50;;
3427;SDS011;1727;42.624;23.406;2023-05-16T00:22:14;17.87;;;15.97;;
3427;SDS011;1727;42.624;23.406;2023-05-16T00:24:41;21.20;;;15.97;;
3427;SDS011;1727;42.624;23.406;2023-05-16T00:27:08;17.90;;;16.00;;
3427;SDS011;1727;42.624;23.406;2023-05-16T00:29:35;31.47;;;18.70;;
3427;SDS011;1727;42.624;23.406;2023-05-16T00:32:01;23.60;;;17.10;;
3427;SDS011;1727;42.624;23.406;2023-05-16T00:34:30;20.97;;;16.07;;
3427;SDS011;1727;42.624;23.406;2023-05-16T00:36:56;30.13;;;17.97;;
3427;SDS011;1727;42.624;23.406;2023-05-16T00:39:23;19.33;;;15.40;;
3427;SDS011;1727;42.624;23.406;2023-05-16T00:41:50;18.83;;;16.77;;
3427;SDS011;1727;42.624;23.406;2023-05-16T00:44:17;19.40;;;17.27;;
3427;SDS011;1727;42.624;23.406;2023-05-16T00:46:44;17.83;;;15.93;;
3427;SDS011;1727;42.624;23.406;2023-05-16T00:49:10;18.67;;;15.63;;
3427;SDS011;1727;42.624;23.406;2023-05-16T00:51:39;20.40;;;15.73;;
3427;SDS011;1727;42.624;23.406;2023-05-16T00:54:06;23.53;;;17.10;;
3427;SDS011;1727;42.624;23.406;2023-05-16T00:56:33;23.10;;;16.70;;
3427;SDS011;1727;42.624;23.406;2023-05-16T00:59:00;20.83;;;16.90;;
3427;SDS011;1727;42.624;23.406;2023-05-16T01:01:32;24.53;;;17.80;;
3427;SDS011;1727;42.624;23.406;2023-05-16T01:07:39;26.60;;;16.80;;
3427;SDS011;1727;42.624;23.406;2023-05-16T01:10:06;19.97;;;17.73;;
3427;SDS011;1727;42.624;23.406;2023-05-16T01:12:36;18.07;;;16.10;;
3427;SDS011;1727;42.624;23.406;2023-05-16T01:15:07;21.73;;;18.53;;
3427;SDS011;1727;42.624;23.406;2023-05-16T01:17:42;19.83;;;17.60;;
3427;SDS011;1727;42.624;23.406;2023-05-16T01:20:19;22.23;;;18.17;;
3427;SDS011;1727;42.624;23.406;2023-05-16T01:23:06;21.40;;;18.43;;
3427;SDS011;1727;42.624;23.406;2023-05-16T01:25:56;21.50;;;18.20;;
3427;SDS011;1727;42.624;23.406;2023-05-16T01:28:37;21.23;;;18.93;;
3427;SDS011;1727;42.624;23.406;2023-05-16T01:31:05;23.60;;;20.73;;
3427;SDS011;1727;42.624;23.406;2023-05-16T01:33:32;24.17;;;20.83;;
3427;SDS011;1727;42.624;23.406;2023-05-16T01:36:00;23.23;;;18.40;;
3427;SDS011;1727;42.624;23.406;2023-05-16T01:38:36;20.67;;;18.60;;
3427;SDS011;1727;42.624;23.406;2023-05-16T01:41:08;27.33;;;18.77;;
3427;SDS011;1727;42.624;23.406;2023-05-16T01:43:45;20.00;;;17.47;;
3427;SDS011;1727;42.624;23.406;2023-05-16T01:46:15;19.30;;;17.37;;
3427;SDS011;1727;42.624;23.406;2023-05-16T01:48:49;24.80;;;18.63;;
3427;SDS011;1727;42.624;23.406;2023-05-16T01:51:19;22.93;;;17.13;;
3427;SDS011;1727;42.624;23.406;2023-05-16T01:53:48;23.13;;;17.73;;
3427;SDS011;1727;42.624;23.406;2023-05-16T01:56:17;19.70;;;16.77;;
3427;SDS011;1727;42.624;23.406;2023-05-16T01:58:45;19.47;;;17.00;;
3427;SDS011;1727;42.624;23.406;2023-05-16T02:01:15;23.03;;;17.50;;
3427;SDS011;1727;42.624;23.406;2023-05-16T02:03:41;22.03;;;16.90;;
3427;SDS011;1727;42.624;23.406;2023-05-16T02:06:08;21.23;;;16.30;;
3427;SDS011;1727;42.624;23.406;2023-05-16T02:08:35;20.97;;;16.53;;
3427;SDS011;1727;42.624;23.406;2023-05-16T02:11:02;19.90;;;17.70;;
3427;SDS011;1727;42.624;23.406;2023-05-16T02:13:30;17.90;;;16.00;;
3427;SDS011;1727;42.624;23.406;2023-05-16T02:15:57;18.40;;;15.23;;
3427;SDS011;1727;42.624;23.406;2023-05-16T02:18:23;22.93;;;18.43;;
3427;SDS011;1727;42.624;23.406;2023-05-16T02:20:52;17.77;;;15.87;;
3427;SDS011;1727;42.624;23.406;2023-05-16T02:23:19;16.03;;;14.40;;
3427;SDS011;1727;42.624;23.406;2023-05-16T02:25:46;24.23;;;15.87;;
3427;SDS011;1727;42.624;23.406;2023-05-16T02:28:12;21.70;;;16.53;;
3427;SDS011;1727;42.624;23.406;2023-05-16T02:30:41;19.20;;;16.20;;
3427;SDS011;1727;42.624;23.406;2023-05-16T02:33:07;19.77;;;17.40;;
3427;SDS011;1727;42.624;23.406;2023-05-16T02:35:35;18.53;;;16.47;;
3427;SDS011;1727;42.624;23.406;2023-05-16T02:38:01;18.40;;;15.60;;
3427;SDS011;1727;42.624;23.406;2023-05-16T02:40:28;22.60;;;16.50;;
3427;SDS011;1727;42.624;23.406;2023-05-16T02:42:55;18.07;;;16.07;;
3427;SDS011;1727;42.624;23.406;2023-05-16T02:45:22;17.17;;;14.83;;
3427;SDS011;1727;42.624;23.406;2023-05-16T02:47:50;17.23;;;15.40;;
3427;SDS011;1727;42.624;23.406;2023-05-16T02:50:17;17.67;;;14.23;;
3427;SDS011;1727;42.624;23.406;2023-05-16T02:52:44;20.93;;;16.70;;
3427;SDS011;1727;42.624;23.406;2023-05-16T02:55:11;22.67;;;16.00;;
3427;SDS011;1727;42.624;23.406;2023-05-16T02:57:38;19.60;;;15.13;;
3427;SDS011;1727;42.624;23.406;2023-05-16T03:00:05;17.50;;;15.00;;
3427;SDS011;1727;42.624;23.406;2023-05-16T03:02:35;23.93;;;17.67;;
3427;SDS011;1727;42.624;23.406;2023-05-16T03:05:04;20.00;;;15.67;;
3427;SDS011;1727;42.624;23.406;2023-05-16T03:07:31;19.27;;;15.00;;
3427;SDS011;1727;42.624;23.406;2023-05-16T03:09:58;18.80;;;16.00;;
3427;SDS011;1727;42.624;23.406;2023-05-16T03:12:25;21.10;;;14.83;;
3427;SDS011;1727;42.624;23.406;2023-05-16T03:14:51;16.23;;;14.60;;
3427;SDS011;1727;42.624;23.406;2023-05-16T03:17:18;20.63;;;14.70;;
3427;SDS011;1727;42.624;23.406;2023-05-16T03:19:45;20.33;;;15.97;;
3427;SDS011;1727;42.624;23.406;2023-05-16T03:22:13;18.57;;;16.10;;
3427;SDS011;1727;42.624;23.406;2023-05-16T03:24:40;15.50;;;13.90;;
3427;SDS011;1727;42.624;23.406;2023-05-16T03:27:07;17.20;;;15.43;;
3427;SDS011;1727;42.624;23.406;2023-05-16T03:29:33;19.40;;;15.30;;
3427;SDS011;1727;42.624;23.406;2023-05-16T03:32:00;18.73;;;16.13;;
3427;SDS011;1727;42.624;23.406;2023-05-16T03:34:27;21.33;;;14.13;;
3427;SDS011;1727;42.624;23.406;2023-05-16T03:36:54;19.43;;;17.33;;
3427;SDS011;1727;42.624;23.406;2023-05-16T03:39:22;19.90;;;16.60;;
3427;SDS011;1727;42.624;23.406;2023-05-16T03:41:49;22.87;;;17.47;;
3427;SDS011;1727;42.624;23.406;2023-05-16T03:44:20;22.30;;;17.37;;
3427;SDS011;1727;42.624;23.406;2023-05-16T03:46:46;22.00;;;17.90;;
3427;SDS011;1727;42.624;23.406;2023-05-16T03:49:15;20.87;;;16.37;;
3427;SDS011;1727;42.624;23.406;2023-05-16T03:51:42;20.83;;;17.33;;
3427;SDS011;1727;42.624;23.406;2023-05-16T03:54:09;25.53;;;19.70;;
3427;SDS011;1727;42.624;23.406;2023-05-16T03:56:37;21.50;;;19.20;;
3427;SDS011;1727;42.624;23.406;2023-05-16T03:59:04;22.70;;;16.67;;
3427;SDS011;1727;42.624;23.406;2023-05-16T04:01:31;20.87;;;18.70;;
3427;SDS011;1727;42.624;23.406;2023-05-16T04:03:57;18.73;;;16.17;;
3427;SDS011;1727;42.624;23.406;2023-05-16T04:06:24;20.93;;;17.50;;
3427;SDS011;1727;42.624;23.406;2023-05-16T04:08:51;20.83;;;15.97;;
3427;SDS011;1727;42.624;23.406;2023-05-16T04:11:18;32.60;;;19.93;;
3427;SDS011;1727;42.624;23.406;2023-05-16T04:13:47;21.33;;;17.93;;
3427;SDS011;1727;42.624;23.406;2023-05-16T04:16:14;21.63;;;16.87;;
3427;SDS011;1727;42.624;23.406;2023-05-16T04:18:40;20.93;;;18.03;;
3427;SDS011;1727;42.624;23.406;2023-05-16T04:21:07;19.40;;;15.73;;
3427;SDS011;1727;42.624;23.406;2023-05-16T04:23:39;15.13;;;13.10;;
3427;SDS011;1727;42.624;23.406;2023-05-16T04:26:05;20.50;;;13.47;;
3427;SDS011;1727;42.624;23.406;2023-05-16T04:28:32;18.93;;;12.60;;
3427;SDS011;1727;42.624;23.406;2023-05-16T04:31:01;13.80;;;12.40;;
3427;SDS011;1727;42.624;23.406;2023-05-16T04:33:28;20.30;;;13.50;;
3427;SDS011;1727;42.624;23.406;2023-05-16T04:35:55;22.83;;;13.40;;
3427;SDS011;1727;42.624;23.406;2023-05-16T04:38:22;19.40;;;14.17;;
3427;SDS011;1727;42.624;23.406;2023-05-16T04:40:48;16.00;;;13.27;;
3427;SDS011;1727;42.624;23.406;2023-05-16T04:43:15;17.80;;;13.93;;
3427;SDS011;1727;42.624;23.406;2023-05-16T04:45:42;15.00;;;12.90;;
3427;SDS011;1727;42.624;23.406;2023-05-16T04:48:11;14.50;;;13.00;;
3427;SDS011;1727;42.624;23.406;2023-05-16T04:50:39;18.10;;;14.00;;
3427;SDS011;1727;42.624;23.406;2023-05-16T04:56:27;22.57;;;14.50;;
3427;SDS011;1727;42.624;23.406;2023-05-16T04:58:54;19.30;;;15.57;;
3427;SDS011;1727;42.624;23.406;2023-05-16T05:01:21;15.50;;;13.80;;
3427;SDS011;1727;42.624;23.406;2023-05-16T05:03:49;20.30;;;13.87;;
3427;SDS011;1727;42.624;23.406;2023-05-16T05:19:44;20.37;;;14.53;;
3427;SDS011;1727;42.624;23.406;2023-05-16T05:22:11;14.57;;;13.07;;
3427;SDS011;1727;42.624;23.406;2023-05-16T05:24:38;17.63;;;14.80;;
3427;SDS011;1727;42.624;23.406;2023-05-16T05:27:04;19.43;;;13.30;;
3427;SDS011;1727;42.624;23.406;2023-05-16T05:29:31;17.70;;;13.97;;
3427;SDS011;1727;42.624;23.406;2023-05-16T05:31:58;30.13;;;14.77;;
3427;SDS011;1727;42.624;23.406;2023-05-16T05:34:25;21.27;;;14.20;;
3427;SDS011;1727;42.624;23.406;2023-05-16T05:36:53;16.10;;;13.50;;
3427;SDS011;1727;42.624;23.406;2023-05-16T05:39:20;18.77;;;13.70;;
3427;SDS011;1727;42.624;23.406;2023-05-16T05:41:48;24.57;;;15.73;;
3427;SDS011;1727;42.624;23.406;2023-05-16T05:44:15;16.07;;;14.27;;
3427;SDS011;1727;42.624;23.406;2023-05-16T05:46:42;24.20;;;14.60;;
3427;SDS011;1727;42.624;23.406;2023-05-16T05:49:09;15.07;;;13.47;;
3427;SDS011;1727;42.624;23.406;2023-05-16T05:51:36;22.13;;;15.10;;
3427;SDS011;1727;42.624;23.406;2023-05-16T05:54:04;25.50;;;15.03;;
3427;SDS011;1727;42.624;23.406;2023-05-16T05:56:31;22.77;;;13.63;;
3427;SDS011;1727;42.624;23.406;2023-05-16T05:58:58;15.93;;;12.97;;
3427;SDS011;1727;42.624;23.406;2023-05-16T06:01:25;18.10;;;13.93;;
3427;SDS011;1727;42.624;23.406;2023-05-16T06:03:52;17.60;;;11.70;;
3427;SDS011;1727;42.624;23.406;2023-05-16T06:06:19;14.97;;;12.53;;
3427;SDS011;1727;42.624;23.406;2023-05-16T06:08:46;19.13;;;13.10;;
3427;SDS011;1727;42.624;23.406;2023-05-16T06:11:14;24.53;;;15.27;;
3427;SDS011;1727;42.624;23.406;2023-05-16T06:13:41;17.87;;;13.13;;
3427;SDS011;1727;42.624;23.406;2023-05-16T06:16:07;17.33;;;12.63;;
3427;SDS011;1727;42.624;23.406;2023-05-16T06:18:34;19.43;;;12.97;;
3427;SDS011;1727;42.624;23.406;2023-05-16T06:21:01;17.47;;;12.33;;
3427;SDS011;1727;42.624;23.406;2023-05-16T06:23:28;17.83;;;13.40;;
3427;SDS011;1727;42.624;23.406;2023-05-16T06:25:55;20.80;;;12.83;;
3427;SDS011;1727;42.624;23.406;2023-05-16T06:28:23;17.33;;;13.47;;
3427;SDS011;1727;42.624;23.406;2023-05-16T06:30:50;18.97;;;14.83;;
3427;SDS011;1727;42.624;23.406;2023-05-16T06:33:17;14.93;;;12.63;;
3427;SDS011;1727;42.624;23.406;2023-05-16T06:35:43;16.20;;;13.77;;
3427;SDS011;1727;42.624;23.406;2023-05-16T06:38:10;13.83;;;12.43;;
3427;SDS011;1727;42.624;23.406;2023-05-16T06:44:00;16.33;;;12.73;;
3427;SDS011;1727;42.624;23.406;2023-05-16T06:46:26;13.53;;;12.13;;
3427;SDS011;1727;42.624;23.406;2023-05-16T06:48:53;13.63;;;11.50;;
3427;SDS011;1727;42.624;23.406;2023-05-16T06:51:20;19.48;;;13.75;;
3427;SDS011;1727;42.624;23.406;2023-05-16T06:53:47;14.37;;;12.97;;
3427;SDS011;1727;42.624;23.406;2023-05-16T06:56:13;17.60;;;13.23;;
3427;SDS011;1727;42.624;23.406;2023-05-16T06:58:40;18.67;;;13.30;;
3427;SDS011;1727;42.624;23.406;2023-05-16T07:01:08;13.27;;;11.87;;
3427;SDS011;1727;42.624;23.406;2023-05-16T07:03:35;14.10;;;12.63;;
3427;SDS011;1727;42.624;23.406;2023-05-16T07:06:02;12.47;;;11.03;;
3427;SDS011;1727;42.624;23.406;2023-05-16T07:08:29;23.53;;;12.33;;
3427;SDS011;1727;42.624;23.406;2023-05-16T07:10:56;13.70;;;11.60;;
3427;SDS011;1727;42.624;23.406;2023-05-16T07:13:22;12.77;;;11.47;;
3427;SDS011;1727;42.624;23.406;2023-05-16T07:15:49;16.70;;;11.70;;
3427;SDS011;1727;42.624;23.406;2023-05-16T07:18:17;15.03;;;12.33;;
3427;SDS011;1727;42.624;23.406;2023-05-16T07:20:44;17.47;;;12.07;;
3427;SDS011;1727;42.624;23.406;2023-05-16T07:23:11;14.43;;;12.00;;
3427;SDS011;1727;42.624;23.406;2023-05-16T07:25:38;13.50;;;11.70;;
3427;SDS011;1727;42.624;23.406;2023-05-16T07:28:05;15.07;;;11.70;;
3427;SDS011;1727;42.624;23.406;2023-05-16T07:30:32;15.63;;;14.03;;
3427;SDS011;1727;42.624;23.406;2023-05-16T07:32:58;20.00;;;12.70;;
3427;SDS011;1727;42.624;23.406;2023-05-16T07:35:27;15.83;;;12.17;;
3427;SDS011;1727;42.624;23.406;2023-05-16T07:37:53;16.50;;;13.30;;
3427;SDS011;1727;42.624;23.406;2023-05-16T07:40:20;14.67;;;12.37;;
3427;SDS011;1727;42.624;23.406;2023-05-16T07:42:49;18.97;;;13.03;;
3427;SDS011;1727;42.624;23.406;2023-05-16T07:45:16;16.23;;;11.43;;
3427;SDS011;1727;42.624;23.406;2023-05-16T07:47:43;19.03;;;13.70;;
3427;SDS011;1727;42.624;23.406;2023-05-16T07:50:10;16.47;;;12.00;;
3427;SDS011;1727;42.624;23.406;2023-05-16T07:52:38;15.50;;;12.70;;
3427;SDS011;1727;42.624;23.406;2023-05-16T07:55:05;21.57;;;12.73;;
3427;SDS011;1727;42.624;23.406;2023-05-16T07:57:33;15.80;;;13.20;;
3427;SDS011;1727;42.624;23.406;2023-05-16T08:00:00;14.40;;;11.57;;
3427;SDS011;1727;42.624;23.406;2023-05-16T08:02:28;21.97;;;12.73;;
3427;SDS011;1727;42.624;23.406;2023-05-16T08:04:55;17.93;;;13.40;;
3427;SDS011;1727;42.624;23.406;2023-05-16T08:07:22;18.40;;;11.17;;
3427;SDS011;1727;42.624;23.406;2023-05-16T08:09:51;15.53;;;11.97;;
3427;SDS011;1727;42.624;23.406;2023-05-16T08:12:17;19.00;;;12.27;;
3427;SDS011;1727;42.624;23.406;2023-05-16T08:14:44;18.43;;;12.37;;
3427;SDS011;1727;42.624;23.406;2023-05-16T08:17:11;16.13;;;11.63;;
3427;SDS011;1727;42.624;23.406;2023-05-16T08:19:38;13.30;;;10.27;;
3427;SDS011;1727;42.624;23.406;2023-05-16T08:22:05;19.03;;;11.70;;
3427;SDS011;1727;42.624;23.406;2023-05-16T08:24:32;18.03;;;11.53;;
3427;SDS011;1727;42.624;23.406;2023-05-16T08:27:00;13.27;;;11.87;;
3427;SDS011;1727;42.624;23.406;2023-05-16T08:29:27;15.27;;;11.77;;
3427;SDS011;1727;42.624;23.406;2023-05-16T08:31:54;15.60;;;10.73;;
3427;SDS011;1727;42.624;23.406;2023-05-16T08:34:21;15.63;;;11.00;;
3427;SDS011;1727;42.624;23.406;2023-05-16T08:36:48;11.30;;;10.10;;
3427;SDS011;1727;42.624;23.406;2023-05-16T08:39:14;20.10;;;10.70;;
3427;SDS011;1727;42.624;23.406;2023-05-16T08:41:41;11.27;;;10.17;;
3427;SDS011;1727;42.624;23.406;2023-05-16T08:44:10;11.43;;;10.13;;
3427;SDS011;1727;42.624;23.406;2023-05-16T08:46:45;22.90;;;11.30;;
3427;SDS011;1727;42.624;23.406;2023-05-16T08:49:16;13.00;;;11.80;;
3427;SDS011;1727;42.624;23.406;2023-05-16T08:51:43;16.40;;;10.07;;
3427;SDS011;1727;42.624;23.406;2023-05-16T08:54:12;11.73;;;10.20;;
3427;SDS011;1727;42.624;23.406;2023-05-16T08:56:40;12.67;;;9.77;;
3427;SDS011;1727;42.624;23.406;2023-05-16T08:59:07;11.30;;;10.27;;
3427;SDS011;1727;42.624;23.406;2023-05-16T09:01:36;13.17;;;9.87;;
3427;SDS011;1727;42.624;23.406;2023-05-16T09:04:05;18.13;;;11.00;;
3427;SDS011;1727;42.624;23.406;2023-05-16T09:06:33;11.53;;;9.40;;
3427;SDS011;1727;42.624;23.406;2023-05-16T09:09:00;10.83;;;9.67;;
3427;SDS011;1727;42.624;23.406;2023-05-16T09:11:29;10.60;;;9.50;;
3427;SDS011;1727;42.624;23.406;2023-05-16T09:13:56;12.90;;;8.50;;
3427;SDS011;1727;42.624;23.406;2023-05-16T09:16:24;13.27;;;10.30;;
3427;SDS011;1727;42.624;23.406;2023-05-16T09:18:52;18.60;;;10.20;;
3427;SDS011;1727;42.624;23.406;2023-05-16T09:21:20;21.23;;;9.40;;
3427;SDS011;1727;42.624;23.406;2023-05-16T09:23:48;19.90;;;10.17;;
3427;SDS011;1727;42.624;23.406;2023-05-16T09:26:15;16.43;;;9.87;;
3427;SDS011;1727;42.624;23.406;2023-05-16T09:28:42;15.80;;;9.53;;
3427;SDS011;1727;42.624;23.406;2023-05-16T09:31:18;13.23;;;10.57;;
3427;SDS011;1727;42.624;23.406;2023-05-16T09:33:48;15.67;;;10.33;;
3427;SDS011;1727;42.624;23.406;2023-05-16T09:36:15;10.60;;;9.23;;
3427;SDS011;1727;42.624;23.406;2023-05-16T09:38:42;20.47;;;10.40;;
3427;SDS011;1727;42.624;23.406;2023-05-16T09:41:09;11.87;;;9.60;;
3427;SDS011;1727;42.624;23.406;2023-05-16T09:43:37;14.43;;;9.60;;
3427;SDS011;1727;42.624;23.406;2023-05-16T09:46:04;22.20;;;10.80;;
3427;SDS011;1727;42.624;23.406;2023-05-16T09:48:31;12.17;;;9.73;;
3427;SDS011;1727;42.624;23.406;2023-05-16T09:50:59;10.60;;;9.50;;
3427;SDS011;1727;42.624;23.406;2023-05-16T09:53:30;16.87;;;10.50;;
3427;SDS011;1727;42.624;23.406;2023-05-16T09:55:58;14.33;;;10.80;;
3427;SDS011;1727;42.624;23.406;2023-05-16T09:58:29;15.17;;;10.20;;
3427;SDS011;1727;42.624;23.406;2023-05-16T10:00:57;15.10;;;10.60;;
3427;SDS011;1727;42.624;23.406;2023-05-16T10:03:24;12.43;;;10.20;;
3427;SDS011;1727;42.624;23.406;2023-05-16T10:05:51;15.30;;;10.77;;
3427;SDS011;1727;42.624;23.406;2023-05-16T10:08:21;14.73;;;10.57;;
3427;SDS011;1727;42.624;23.406;2023-05-16T10:10:50;11.20;;;10.03;;
3427;SDS011;1727;42.624;23.406;2023-05-16T10:13:19;15.70;;;10.33;;
3427;SDS011;1727;42.624;23.406;2023-05-16T10:15:47;19.53;;;12.33;;
3427;SDS011;1727;42.624;23.406;2023-05-16T10:18:15;18.40;;;10.97;;
3427;SDS011;1727;42.624;23.406;2023-05-16T10:20:44;15.47;;;10.50;;
3427;SDS011;1727;42.624;23.406;2023-05-16T10:23:16;12.93;;;9.83;;
3427;SDS011;1727;42.624;23.406;2023-05-16T10:25:46;11.43;;;10.33;;
3427;SDS011;1727;42.624;23.406;2023-05-16T10:28:14;14.90;;;10.50;;
3427;SDS011;1727;42.624;23.406;2023-05-16T10:30:42;15.20;;;10.80;;
3427;SDS011;1727;42.624;23.406;2023-05-16T10:33:10;24.97;;;10.60;;
3427;SDS011;1727;42.624;23.406;2023-05-16T10:35:38;11.67;;;10.57;;
3427;SDS011;1727;42.624;23.406;2023-05-16T10:38:05;16.90;;;10.00;;
3427;SDS011;1727;42.624;23.406;2023-05-16T10:40:33;12.30;;;10.33;;
3427;SDS011;1727;42.624;23.406;2023-05-16T10:43:03;12.33;;;10.90;;
3427;SDS011;1727;42.624;23.406;2023-05-16T10:45:31;13.40;;;10.57;;
3427;SDS011;1727;42.624;23.406;2023-05-16T10:47:59;17.47;;;11.20;;
3427;SDS011;1727;42.624;23.406;2023-05-16T10:50:31;13.37;;;10.93;;
3427;SDS011;1727;42.624;23.406;2023-05-16T10:56:04;11.00;;;10.00;;
3427;SDS011;1727;42.624;23.406;2023-05-16T10:58:41;11.70;;;10.53;;
3427;SDS011;1727;42.624;23.406;2023-05-16T11:01:15;16.30;;;9.93;;
3427;SDS011;1727;42.624;23.406;2023-05-16T11:03:59;16.57;;;10.80;;
3427;SDS011;1727;42.624;23.406;2023-05-16T11:06:31;15.87;;;11.87;;
3427;SDS011;1727;42.624;23.406;2023-05-16T11:09:05;12.27;;;11.07;;
3427;SDS011;1727;42.624;23.406;2023-05-16T11:11:37;14.33;;;10.27;;
3427;SDS011;1727;42.624;23.406;2023-05-16T11:14:07;19.07;;;11.20;;
3427;SDS011;1727;42.624;23.406;2023-05-16T11:16:34;12.80;;;10.27;;
3427;SDS011;1727;42.624;23.406;2023-05-16T11:19:05;20.27;;;10.73;;
3427;SDS011;1727;42.624;23.406;2023-05-16T11:24:31;10.67;;;9.57;;
3427;SDS011;1727;42.624;23.406;2023-05-16T11:26:59;15.23;;;11.10;;
3427;SDS011;1727;42.624;23.406;2023-05-16T11:29:28;10.93;;;9.80;;
3427;SDS011;1727;42.624;23.406;2023-05-16T11:31:57;20.60;;;10.93;;
3427;SDS011;1727;42.624;23.406;2023-05-16T11:34:24;14.60;;;10.07;;
3427;SDS011;1727;42.624;23.406;2023-05-16T11:36:51;18.53;;;10.60;;
3427;SDS011;1727;42.624;23.406;2023-05-16T11:39:18;13.43;;;10.60;;
3427;SDS011;1727;42.624;23.406;2023-05-16T11:41:45;20.40;;;10.17;;
3427;SDS011;1727;42.624;23.406;2023-05-16T11:44:11;13.13;;;10.03;;
3427;SDS011;1727;42.624;23.406;2023-05-16T11:46:40;18.23;;;10.10;;
3427;SDS011;1727;42.624;23.406;2023-05-16T11:49:08;12.20;;;9.60;;
3427;SDS011;1727;42.624;23.406;2023-05-16T11:51:36;16.67;;;11.33;;
3427;SDS011;1727;42.624;23.406;2023-05-16T11:54:03;15.63;;;10.60;;
3427;SDS011;1727;42.624;23.406;2023-05-16T11:56:31;13.67;;;9.87;;
3427;SDS011;1727;42.624;23.406;2023-05-16T11:58:59;12.40;;;10.27;;
3427;SDS011;1727;42.624;23.406;2023-05-16T12:01:30;11.80;;;10.50;;
3427;SDS011;1727;42.624;23.406;2023-05-16T12:03:59;13.70;;;9.83;;
3427;SDS011;1727;42.624;23.406;2023-05-16T12:06:25;13.80;;;9.60;;
3427;SDS011;1727;42.624;23.406;2023-05-16T12:08:55;9.60;;;8.60;;
3427;SDS011;1727;42.624;23.406;2023-05-16T12:11:22;18.80;;;10.03;;
3427;SDS011;1727;42.624;23.406;2023-05-16T12:13:49;19.30;;;9.63;;
3427;SDS011;1727;42.624;23.406;2023-05-16T12:16:16;26.23;;;10.00;;
3427;SDS011;1727;42.624;23.406;2023-05-16T12:38:58;16.13;;;9.67;;
3427;SDS011;1727;42.624;23.406;2023-05-16T12:41:26;10.23;;;9.03;;
3427;SDS011;1727;42.624;23.406;2023-05-16T12:44:04;17.90;;;12.23;;
3427;SDS011;1727;42.624;23.406;2023-05-16T12:46:32;15.30;;;9.00;;
3427;SDS011;1727;42.624;23.406;2023-05-16T12:49:00;10.40;;;8.50;;
3427;SDS011;1727;42.624;23.406;2023-05-16T12:51:29;15.60;;;10.03;;
3427;SDS011;1727;42.624;23.406;2023-05-16T12:54:05;13.30;;;10.00;;
3427;SDS011;1727;42.624;23.406;2023-05-16T12:56:33;11.27;;;9.00;;
3427;SDS011;1727;42.624;23.406;2023-05-16T12:59:00;19.27;;;10.60;;
3427;SDS011;1727;42.624;23.406;2023-05-16T13:04:49;18.83;;;9.70;;
3427;SDS011;1727;42.624;23.406;2023-05-16T13:07:16;18.37;;;10.97;;
3427;SDS011;1727;42.624;23.406;2023-05-16T13:09:44;10.90;;;9.77;;
3427;SDS011;1727;42.624;23.406;2023-05-16T13:12:11;13.73;;;10.10;;
3427;SDS011;1727;42.624;23.406;2023-05-16T13:14:38;13.13;;;9.20;;
3427;SDS011;1727;42.624;23.406;2023-05-16T13:17:06;15.00;;;10.00;;
3427;SDS011;1727;42.624;23.406;2023-05-16T13:26:17;14.07;;;9.37;;
3427;SDS011;1727;42.624;23.406;2023-05-16T13:28:46;14.73;;;9.60;;
3427;SDS011;1727;42.624;23.406;2023-05-16T13:31:15;11.73;;;8.40;;
3427;SDS011;1727;42.624;23.406;2023-05-16T13:33:42;10.80;;;9.43;;
3427;SDS011;1727;42.624;23.406;2023-05-16T13:36:09;13.43;;;9.93;;
3427;SDS011;1727;42.624;23.406;2023-05-16T13:38:35;14.20;;;9.30;;
3427;SDS011;1727;42.624;23.406;2023-05-16T13:41:04;12.23;;;8.13;;
3427;SDS011;1727;42.624;23.406;2023-05-16T13:43:32;9.87;;;8.87;;
3427;SDS011;1727;42.624;23.406;2023-05-16T13:45:59;11.23;;;8.70;;
3427;SDS011;1727;42.624;23.406;2023-05-16T13:48:26;16.20;;;10.33;;
3427;SDS011;1727;42.624;23.406;2023-05-16T13:50:53;11.27;;;9.27;;
3427;SDS011;1727;42.624;23.406;2023-05-16T13:53:22;9.97;;;9.07;;
3427;SDS011;1727;42.624;23.406;2023-05-16T13:55:50;12.93;;;8.90;;
3427;SDS011;1727;42.624;23.406;2023-05-16T13:58:16;17.23;;;10.60;;
3427;SDS011;1727;42.624;23.406;2023-05-16T14:00:44;14.00;;;10.07;;
3427;SDS011;1727;42.624;23.406;2023-05-16T14:03:12;16.60;;;11.27;;
3427;SDS011;1727;42.624;23.406;2023-05-16T14:05:38;19.20;;;11.47;;
3427;SDS011;1727;42.624;23.406;2023-05-16T14:14:52;16.43;;;11.80;;
3427;SDS011;1727;42.624;23.406;2023-05-16T14:17:20;21.43;;;12.13;;
3427;SDS011;1727;42.624;23.406;2023-05-16T14:19:46;17.30;;;12.30;;
3427;SDS011;1727;42.624;23.406;2023-05-16T14:22:13;24.30;;;13.57;;
3427;SDS011;1727;42.624;23.406;2023-05-16T14:24:40;23.77;;;13.93;;
3427;SDS011;1727;42.624;23.406;2023-05-16T14:27:07;22.00;;;13.60;;
3427;SDS011;1727;42.624;23.406;2023-05-16T14:29:33;27.10;;;17.00;;
3427;SDS011;1727;42.624;23.406;2023-05-16T14:32:00;21.47;;;12.63;;
3427;SDS011;1727;42.624;23.406;2023-05-16T14:34:28;23.30;;;13.33;;
3427;SDS011;1727;42.624;23.406;2023-05-16T14:36:55;17.77;;;13.27;;
3427;SDS011;1727;42.624;23.406;2023-05-16T14:39:22;17.20;;;13.53;;
3427;SDS011;1727;42.624;23.406;2023-05-16T14:41:48;27.27;;;14.67;;
3427;SDS011;1727;42.624;23.406;2023-05-16T14:44:15;24.97;;;16.03;;
3427;SDS011;1727;42.624;23.406;2023-05-16T14:46:43;24.97;;;14.43;;
3427;SDS011;1727;42.624;23.406;2023-05-16T14:49:10;22.80;;;14.50;;
3427;SDS011;1727;42.624;23.406;2023-05-16T14:51:38;26.03;;;15.10;;
3427;SDS011;1727;42.624;23.406;2023-05-16T14:54:05;25.83;;;19.80;;
3427;SDS011;1727;42.624;23.406;2023-05-16T14:59:54;28.33;;;18.27;;
3427;SDS011;1727;42.624;23.406;2023-05-16T15:02:20;29.87;;;20.47;;
3427;SDS011;1727;42.624;23.406;2023-05-16T15:04:47;37.07;;;24.80;;
3427;SDS011;1727;42.624;23.406;2023-05-16T15:07:15;46.07;;;31.83;;
3427;SDS011;1727;42.624;23.406;2023-05-16T15:09:42;54.63;;;33.10;;
3427;SDS011;1727;42.624;23.406;2023-05-16T15:12:09;44.53;;;31.10;;
3427;SDS011;1727;42.624;23.406;2023-05-16T15:14:36;37.03;;;25.47;;
3427;SDS011;1727;42.624;23.406;2023-05-16T15:17:03;51.70;;;33.87;;
3427;SDS011;1727;42.624;23.406;2023-05-16T15:19:30;62.10;;;48.43;;
3427;SDS011;1727;42.624;23.406;2023-05-16T15:21:56;55.57;;;41.23;;
3427;SDS011;1727;42.624;23.406;2023-05-16T15:24:25;47.50;;;37.50;;
3427;SDS011;1727;42.624;23.406;2023-05-16T15:26:52;54.27;;;26.43;;
3427;SDS011;1727;42.624;23.406;2023-05-16T15:29:19;25.27;;;16.50;;
3427;SDS011;1727;42.624;23.406;2023-05-16T15:31:46;33.73;;;20.33;;
3427;SDS011;1727;42.624;23.406;2023-05-16T15:34:13;34.57;;;20.17;;
3427;SDS011;1727;42.624;23.406;2023-05-16T15:36:39;23.30;;;16.67;;
3427;SDS011;1727;42.624;23.406;2023-05-16T15:39:06;24.97;;;15.20;;
3427;SDS011;1727;42.624;23.406;2023-05-16T15:41:34;26.43;;;16.00;;
3427;SDS011;1727;42.624;23.406;2023-05-16T15:44:01;22.80;;;14.97;;
3427;SDS011;1727;42.624;23.406;2023-05-16T15:46:28;25.73;;;15.87;;
3427;SDS011;1727;42.624;23.406;2023-05-16T15:48:56;29.93;;;16.77;;
3427;SDS011;1727;42.624;23.406;2023-05-16T15:51:23;26.63;;;17.27;;
3427;SDS011;1727;42.624;23.406;2023-05-16T15:53:50;26.63;;;16.10;;
3427;SDS011;1727;42.624;23.406;2023-05-16T15:56:17;25.37;;;17.80;;
3427;SDS011;1727;42.624;23.406;2023-05-16T15:58:45;29.40;;;18.87;;
3427;SDS011;1727;42.624;23.406;2023-05-16T16:01:12;27.93;;;18.27;;